createdAt,value
2023-05-09T00:00:42.216Z,76.48
2023-05-09T00:01:42.294Z,76.37
2023-05-09T00:02:42.263Z,76.44
2023-05-09T00:03:42.177Z,76.17
2023-05-09T00:04:42.181Z,76.27
2023-05-09T00:05:42.074Z,76.37
2023-05-09T00:06:42.020Z,76.62
2023-05-09T00:07:42.000Z,77.03
2023-05-09T00:08:42.015Z,77.13
2023-05-09T00:09:41.993Z,77.33
2023-05-09T00:10:41.895Z,77.64
2023-05-09T00:11:41.834Z,77.54
2023-05-09T00:12:41.859Z,77.33
2023-05-09T00:13:41.853Z,77.23
2023-05-09T00:14:41.766Z,77.33
2023-05-09T00:15:41.801Z,77.33
2023-05-09T00:16:41.730Z,77.33
2023-05-09T00:17:41.753Z,77.23
2023-05-09T00:18:41.617Z,77.03
2023-05-09T00:19:41.564Z,76.58
2023-05-09T00:20:41.574Z,76.99
2023-05-09T00:21:41.566Z,76.58
2023-05-09T00:22:41.483Z,77.23
2023-05-09T00:23:41.438Z,77.44
2023-05-09T00:24:41.442Z,77.23
2023-05-09T00:25:41.370Z,77.23
2023-05-09T00:26:41.409Z,77.44
2023-05-09T00:27:41.310Z,77.03
2023-05-09T00:28:41.313Z,77.84
2023-05-09T00:29:41.262Z,77.33
2023-05-09T00:30:41.198Z,77.44
2023-05-09T00:31:41.174Z,77.74
2023-05-09T00:32:41.275Z,77.64
2023-05-09T00:33:41.164Z,77.88
2023-05-09T00:34:41.097Z,78.29
2023-05-09T00:35:41.028Z,78.29
2023-05-09T00:36:40.999Z,78.50
2023-05-09T00:37:40.982Z,78.43
2023-05-09T00:38:40.989Z,78.64
2023-05-09T00:39:43.008Z,78.74
2023-05-09T00:40:40.876Z,79.05
2023-05-09T00:41:40.815Z,79.15
2023-05-09T00:42:40.785Z,79.60
2023-05-09T00:43:40.779Z,79.25
2023-05-09T00:44:40.848Z,79.46
2023-05-09T00:45:40.705Z,78.94
2023-05-09T00:46:40.639Z,79.25
2023-05-09T00:47:40.633Z,79.05
2023-05-09T00:48:40.629Z,78.70
2023-05-09T00:49:40.706Z,79.01
2023-05-09T00:50:40.512Z,78.60
2023-05-09T00:51:40.471Z,78.81
2023-05-09T00:52:40.442Z,78.74
2023-05-09T00:53:40.420Z,78.64
2023-05-09T00:54:40.370Z,78.94
2023-05-09T00:55:40.478Z,79.46
2023-05-09T00:56:40.351Z,78.74
2023-05-09T00:57:40.275Z,78.85
2023-05-09T00:58:40.231Z,78.94
2023-05-09T00:59:40.201Z,78.85
2023-05-09T01:00:40.160Z,79.25
2023-05-09T01:01:40.302Z,79.05
2023-05-09T01:02:40.121Z,79.46
2023-05-09T01:03:40.217Z,79.39
2023-05-09T01:04:40.131Z,78.98
2023-05-09T01:05:40.057Z,79.49
2023-05-09T01:06:39.976Z,79.91
2023-05-09T01:07:40.023Z,79.91
2023-05-09T01:08:39.957Z,80.42
2023-05-09T01:09:39.936Z,80.15
2023-05-09T01:10:39.833Z,80.46
2023-05-09T01:11:39.785Z,81.18
2023-05-09T01:12:39.767Z,80.35
2023-05-09T01:13:39.789Z,80.46
2023-05-09T01:14:39.712Z,80.42
2023-05-09T01:15:39.670Z,80.21
2023-05-09T01:16:39.625Z,80.11
2023-05-09T01:17:39.660Z,79.70
2023-05-09T01:18:39.557Z,80.25
2023-05-09T01:19:39.519Z,80.11
2023-05-09T01:20:39.495Z,80.21
2023-05-09T01:21:39.516Z,79.08
2023-05-09T01:22:39.463Z,80.01
2023-05-09T01:23:39.387Z,80.42
2023-05-09T01:24:39.344Z,79.94
2023-05-09T01:25:39.303Z,79.60
2023-05-09T01:26:39.285Z,79.60
2023-05-09T01:27:39.304Z,79.80
2023-05-09T01:28:39.208Z,80.11
2023-05-09T01:29:39.161Z,79.29
2023-05-09T01:30:39.141Z,78.88
2023-05-09T01:31:39.197Z,78.88
2023-05-09T01:32:39.189Z,78.98
2023-05-09T01:33:39.033Z,78.88
2023-05-09T01:34:38.998Z,79.19
2023-05-09T01:35:38.980Z,78.88
2023-05-09T01:36:38.951Z,79.08
2023-05-09T01:37:38.959Z,79.08
2023-05-09T01:38:38.935Z,79.19
2023-05-09T01:39:38.820Z,79.02
2023-05-09T01:40:38.787Z,79.33
2023-05-09T01:41:38.855Z,79.33
2023-05-09T01:42:38.717Z,79.33
2023-05-09T01:43:38.695Z,79.57
2023-05-09T01:44:38.703Z,79.22
2023-05-09T01:45:38.621Z,79.22
2023-05-09T01:46:38.611Z,79.08
2023-05-09T01:47:38.652Z,78.57
2023-05-09T01:48:38.527Z,78.36
2023-05-09T01:49:38.486Z,78.47
2023-05-09T01:50:38.441Z,78.47
2023-05-09T01:51:38.437Z,78.50
2023-05-09T01:52:38.368Z,78.27
2023-05-09T01:53:38.516Z,78.40
2023-05-09T01:54:38.333Z,78.40
2023-05-09T01:55:38.263Z,77.99
2023-05-09T01:56:38.248Z,77.85
2023-05-09T01:57:38.201Z,77.13
2023-05-09T01:58:38.183Z,77.03
2023-05-09T01:59:38.200Z,76.93
2023-05-09T02:00:38.118Z,76.62
2023-05-09T02:01:38.076Z,77.03
2023-05-09T02:02:38.127Z,76.89
2023-05-09T02:03:38.001Z,77.00
2023-05-09T02:04:37.958Z,76.58
2023-05-09T02:05:37.983Z,77.03
2023-05-09T02:06:37.879Z,76.86
2023-05-09T02:07:37.883Z,76.72
2023-05-09T02:08:37.889Z,77.13
2023-05-09T02:09:37.865Z,77.34
2023-05-09T02:10:37.831Z,77.23
2023-05-09T02:11:37.725Z,77.03
2023-05-09T02:12:37.698Z,76.62
2023-05-09T02:13:37.653Z,77.48
2023-05-09T02:14:37.619Z,77.23
2023-05-09T02:15:37.675Z,77.44
2023-05-09T02:16:37.591Z,76.93
2023-05-09T02:17:37.548Z,76.62
2023-05-09T02:18:37.471Z,76.93
2023-05-09T02:19:37.446Z,76.72
2023-05-09T02:20:37.514Z,76.72
2023-05-09T02:21:37.374Z,76.31
2023-05-09T02:22:37.337Z,76.42
2023-05-09T02:23:37.298Z,76.31
2023-05-09T02:24:37.311Z,75.76
2023-05-09T02:25:37.371Z,76.28
2023-05-09T02:26:37.215Z,75.76
2023-05-09T02:27:37.161Z,75.35
2023-05-09T02:28:37.131Z,75.90
2023-05-09T02:29:37.102Z,75.38
2023-05-09T02:30:37.061Z,76.42
2023-05-09T02:31:37.168Z,76.35
2023-05-09T02:32:37.061Z,76.35
2023-05-09T02:33:36.959Z,76.55
2023-05-09T02:34:36.924Z,76.72
2023-05-09T02:35:36.914Z,76.55
2023-05-09T02:36:36.892Z,76.86
2023-05-09T02:37:36.938Z,76.65
2023-05-09T02:38:36.776Z,76.72
2023-05-09T02:39:36.803Z,76.86
2023-05-09T02:40:36.725Z,76.35
2023-05-09T02:41:36.749Z,76.31
2023-05-09T02:42:36.662Z,76.42
2023-05-09T02:43:36.661Z,76.35
2023-05-09T02:44:36.575Z,76.45
2023-05-09T02:45:36.593Z,76.35
2023-05-09T02:46:36.503Z,76.55
2023-05-09T02:47:36.500Z,76.14
2023-05-09T02:48:36.569Z,76.21
2023-05-09T02:49:36.395Z,76.51
2023-05-09T02:50:36.364Z,75.80
2023-05-09T02:51:36.344Z,76.55
2023-05-09T02:52:36.314Z,76.45
2023-05-09T02:53:36.307Z,76.65
2023-05-09T02:54:36.233Z,76.14
2023-05-09T02:55:36.195Z,76.45
2023-05-09T02:56:36.162Z,76.35
2023-05-09T02:57:36.252Z,76.59
2023-05-09T02:58:36.172Z,76.28
2023-05-09T02:59:36.055Z,76.55
2023-05-09T03:00:36.015Z,76.45
2023-05-09T03:01:35.996Z,76.35
2023-05-09T03:02:36.065Z,76.14
2023-05-09T03:03:36.004Z,75.52
2023-05-09T03:04:35.969Z,75.70
2023-05-09T03:05:35.867Z,75.42
2023-05-09T03:06:35.810Z,76.55
2023-05-09T03:07:35.796Z,76.35
2023-05-09T03:08:35.762Z,75.73
2023-05-09T03:09:35.715Z,76.45
2023-05-09T03:10:35.759Z,76.45
2023-05-09T03:11:35.640Z,77.00
2023-05-09T03:12:35.614Z,76.90
2023-05-09T03:13:35.629Z,76.79
2023-05-09T03:14:35.536Z,76.45
2023-05-09T03:15:35.490Z,76.45
2023-05-09T03:16:35.513Z,77.00
2023-05-09T03:17:35.478Z,76.90
2023-05-09T03:18:35.404Z,77.00
2023-05-09T03:19:35.364Z,76.48
2023-05-09T03:20:35.339Z,76.25
2023-05-09T03:21:35.274Z,76.59
2023-05-09T03:22:35.322Z,76.25
2023-05-09T03:23:35.240Z,76.25
2023-05-09T03:24:35.234Z,75.42
2023-05-09T03:25:35.160Z,76.45
2023-05-09T03:26:35.103Z,76.14
2023-05-09T03:27:35.084Z,76.28
2023-05-09T03:28:35.112Z,76.38
2023-05-09T03:29:35.087Z,76.18
2023-05-09T03:30:34.969Z,76.48
2023-05-09T03:31:35.002Z,76.90
2023-05-09T03:32:34.966Z,76.38
2023-05-09T03:33:34.870Z,76.38
2023-05-09T03:34:34.912Z,76.69
2023-05-09T03:35:34.836Z,76.28
2023-05-09T03:36:34.859Z,76.48
2023-05-09T03:37:34.749Z,76.28
2023-05-09T03:38:34.697Z,76.48
2023-05-09T03:39:34.660Z,76.28
2023-05-09T03:40:34.706Z,76.59
2023-05-09T03:41:34.684Z,76.28
2023-05-09T03:42:34.556Z,76.38
2023-05-09T03:43:34.528Z,76.48
2023-05-09T03:44:34.512Z,76.83
2023-05-09T03:45:35.547Z,76.83
2023-05-09T03:46:34.447Z,76.59
2023-05-09T03:47:34.468Z,76.38
2023-05-09T03:48:34.371Z,76.28
2023-05-09T03:49:34.320Z,76.35
2023-05-09T03:50:34.276Z,75.90
2023-05-09T03:51:34.245Z,75.25
2023-05-09T03:52:34.268Z,73.78
2023-05-09T03:53:34.182Z,72.38
2023-05-09T03:54:34.143Z,71.11
2023-05-09T03:55:34.126Z,71.18
2023-05-09T03:56:34.074Z,70.43
2023-05-09T03:57:34.036Z,69.71
2023-05-09T03:58:34.074Z,69.27
2023-05-09T03:59:33.963Z,69.17
2023-05-09T04:00:33.932Z,68.76
2023-05-09T04:01:34.130Z,68.97
2023-05-09T04:02:34.004Z,68.90
2023-05-09T04:03:33.937Z,69.31
2023-05-09T04:04:34.277Z,69.48
2023-05-09T04:05:33.806Z,68.16
2023-05-09T04:06:33.841Z,66.56
2023-05-09T04:07:33.917Z,65.25
2023-05-09T04:08:33.676Z,62.71
2023-05-09T04:09:33.641Z,61.13
2023-05-09T04:10:33.765Z,60.18
2023-05-09T04:11:33.561Z,60.31
2023-05-09T04:12:33.589Z,60.21
2023-05-09T04:13:33.487Z,60.52
2023-05-09T04:14:33.449Z,60.52
2023-05-09T04:15:33.420Z,60.52
2023-05-09T04:16:33.413Z,60.49
2023-05-09T04:17:33.501Z,60.21
2023-05-09T04:18:33.395Z,61.18
2023-05-09T04:19:33.298Z,62.77
2023-05-09T04:20:33.269Z,63.13
2023-05-09T04:21:33.231Z,63.95
2023-05-09T04:22:33.202Z,63.03
2023-05-09T04:23:33.164Z,64.15
2023-05-09T04:24:33.194Z,63.71
2023-05-09T04:25:33.100Z,63.82
2023-05-09T04:26:33.071Z,63.18
2023-05-09T04:27:33.035Z,63.41
2023-05-09T04:28:33.014Z,62.90
2023-05-09T04:29:32.967Z,63.64
2023-05-09T04:30:33.046Z,63.81
2023-05-09T04:31:33.012Z,65.47
2023-05-09T04:32:32.910Z,65.80
2023-05-09T04:33:32.840Z,66.25
2023-05-09T04:34:32.824Z,67.50
2023-05-09T04:35:32.783Z,67.54
2023-05-09T04:36:32.812Z,68.15
2023-05-09T04:37:32.769Z,68.87
2023-05-09T04:38:32.688Z,68.25
2023-05-09T04:39:32.650Z,68.22
2023-05-09T04:40:32.626Z,68.01
2023-05-09T04:41:32.667Z,67.54
2023-05-09T04:42:32.549Z,67.94
2023-05-09T04:43:32.523Z,67.94
2023-05-09T04:44:32.492Z,68.87
2023-05-09T04:45:32.538Z,69.07
2023-05-09T04:46:33.191Z,68.76
2023-05-09T04:47:32.420Z,68.76
2023-05-09T04:48:32.379Z,69.07
2023-05-09T04:49:32.439Z,68.12
2023-05-09T04:50:32.295Z,67.60
2023-05-09T04:51:32.308Z,67.91
2023-05-09T04:52:32.240Z,68.01
2023-05-09T04:53:32.211Z,68.76
2023-05-09T04:54:32.174Z,68.66
2023-05-09T04:55:32.131Z,69.00
2023-05-09T04:56:32.150Z,68.87
2023-05-09T04:57:32.073Z,68.35
2023-05-09T04:58:32.030Z,67.78
2023-05-09T04:59:32.056Z,66.11
2023-05-09T05:00:31.986Z,65.84
2023-05-09T05:01:31.946Z,65.41
2023-05-09T05:02:31.986Z,63.64
2023-05-09T05:03:31.865Z,63.92
2023-05-09T05:04:31.872Z,63.58
2023-05-09T05:05:33.678Z,62.81
2023-05-09T05:06:31.766Z,60.79
2023-05-09T05:07:31.735Z,59.95
2023-05-09T05:08:31.746Z,60.28
2023-05-09T05:09:31.680Z,61.10
2023-05-09T05:10:31.631Z,61.13
2023-05-09T05:11:31.598Z,60.61
2023-05-09T05:12:31.728Z,60.38
2023-05-09T05:13:31.545Z,59.77
2023-05-09T05:14:31.557Z,59.75
2023-05-09T05:15:31.474Z,60.38
2023-05-09T05:16:31.456Z,60.75
2023-05-09T05:17:31.484Z,61.05
2023-05-09T05:18:31.413Z,61.25
2023-05-09T05:19:31.440Z,61.49
2023-05-09T05:20:31.307Z,62.23
2023-05-09T05:21:31.458Z,62.05
2023-05-09T05:22:32.689Z,64.15
2023-05-09T05:23:31.230Z,64.90
2023-05-09T05:24:31.192Z,65.77
2023-05-09T05:25:31.267Z,66.45
2023-05-09T05:26:31.123Z,68.01
2023-05-09T05:27:31.096Z,68.52
2023-05-09T05:28:31.073Z,67.94
2023-05-09T05:29:31.038Z,68.66
2023-05-09T05:30:33.481Z,69.38
2023-05-09T05:31:31.066Z,69.38
2023-05-09T05:32:30.955Z,69.85
2023-05-09T05:33:30.897Z,69.96
2023-05-09T05:34:30.859Z,70.26
2023-05-09T05:35:30.834Z,69.75
2023-05-09T05:36:30.800Z,69.07
2023-05-09T05:37:30.969Z,69.99
2023-05-09T05:38:30.733Z,69.89
2023-05-09T05:39:30.701Z,70.09
2023-05-09T05:40:30.680Z,69.48
2023-05-09T05:41:30.643Z,69.38
2023-05-09T05:42:30.632Z,70.20
2023-05-09T05:43:30.649Z,70.50
2023-05-09T05:44:30.532Z,70.09
2023-05-09T05:45:30.590Z,70.09
2023-05-09T05:46:30.507Z,69.68
2023-05-09T05:47:30.459Z,69.89
2023-05-09T05:48:30.399Z,70.20
2023-05-09T05:49:30.373Z,70.50
2023-05-09T05:50:30.399Z,70.40
2023-05-09T05:51:30.314Z,70.50
2023-05-09T05:52:30.270Z,70.50
2023-05-09T05:53:32.081Z,70.57
2023-05-09T05:54:30.203Z,70.20
2023-05-09T05:55:30.250Z,70.98
2023-05-09T05:56:30.170Z,70.91
2023-05-09T05:57:30.112Z,70.09
2023-05-09T05:58:30.084Z,70.29
2023-05-09T05:59:30.048Z,70.16
2023-05-09T06:00:30.120Z,70.57
2023-05-09T06:01:30.041Z,69.85
2023-05-09T06:02:30.018Z,69.45
2023-05-09T06:03:30.033Z,69.34
2023-05-09T06:04:29.885Z,68.90
2023-05-09T06:05:29.858Z,68.93
2023-05-09T06:06:29.812Z,69.21
2023-05-09T06:07:29.822Z,69.82
2023-05-09T06:08:29.747Z,69.34
2023-05-09T06:09:29.761Z,68.39
2023-05-09T06:10:29.689Z,68.70
2023-05-09T06:11:29.649Z,68.39
2023-05-09T06:12:29.748Z,68.57
2023-05-09T06:13:29.666Z,68.16
2023-05-09T06:14:29.590Z,68.16
2023-05-09T06:15:29.516Z,68.26
2023-05-09T06:16:29.498Z,67.75
2023-05-09T06:17:29.498Z,68.16
2023-05-09T06:18:29.458Z,67.54
2023-05-09T06:19:29.431Z,67.75
2023-05-09T06:20:29.384Z,68.97
2023-05-09T06:21:29.324Z,68.26
2023-05-09T06:22:29.273Z,67.75
2023-05-09T06:23:29.239Z,68.16
2023-05-09T06:24:35.696Z,68.16
2023-05-09T06:25:29.327Z,67.30
2023-05-09T06:26:29.154Z,67.21
2023-05-09T06:27:29.162Z,67.92
2023-05-09T06:28:29.077Z,68.02
2023-05-09T06:29:29.083Z,66.69
2023-05-09T06:30:29.065Z,65.98
2023-05-09T06:31:29.060Z,66.18
2023-05-09T06:32:28.972Z,65.74
2023-05-09T06:33:28.917Z,65.95
2023-05-09T06:34:28.932Z,66.15
2023-05-09T06:35:28.852Z,65.54
2023-05-09T06:36:28.821Z,65.03
2023-05-09T06:37:28.784Z,65.03
2023-05-09T06:38:28.754Z,65.81
2023-05-09T06:39:28.792Z,66.02
2023-05-09T06:40:28.688Z,66.12
2023-05-09T06:41:29.281Z,64.97
2023-05-09T06:42:28.613Z,65.10
2023-05-09T06:43:28.644Z,64.69
2023-05-09T06:44:28.554Z,65.10
2023-05-09T06:45:28.608Z,65.51
2023-05-09T06:46:28.509Z,64.69
2023-05-09T06:47:28.481Z,65.71
2023-05-09T06:48:28.423Z,64.97
2023-05-09T06:49:28.503Z,63.64
2023-05-09T06:50:29.094Z,64.97
2023-05-09T06:51:28.392Z,63.82
2023-05-09T06:52:28.296Z,63.95
2023-05-09T06:53:28.463Z,63.31
2023-05-09T06:54:28.238Z,64.02
2023-05-09T06:55:28.222Z,63.20
2023-05-09T06:56:28.162Z,63.00
2023-05-09T06:57:28.264Z,63.31
2023-05-09T06:58:28.097Z,63.10
2023-05-09T06:59:28.068Z,62.90
2023-05-09T07:00:28.043Z,62.18
2023-05-09T07:01:28.031Z,62.08
2023-05-09T07:02:28.008Z,63.00
2023-05-09T07:03:27.974Z,63.28
2023-05-09T07:04:27.905Z,63.58
2023-05-09T07:05:27.928Z,63.82
2023-05-09T07:06:27.847Z,63.07
2023-05-09T07:07:27.811Z,63.68
2023-05-09T07:08:27.767Z,63.18
2023-05-09T07:09:28.750Z,62.56
2023-05-09T07:10:27.770Z,63.24
2023-05-09T07:11:27.669Z,62.94
2023-05-09T07:12:27.638Z,62.33
2023-05-09T07:13:27.685Z,62.33
2023-05-09T07:14:27.571Z,63.15
2023-05-09T07:15:40.494Z,62.23
2023-05-09T07:16:27.570Z,62.81
2023-05-09T07:17:27.540Z,61.21
2023-05-09T07:18:27.460Z,61.00
2023-05-09T07:19:28.213Z,61.38
2023-05-09T07:20:27.383Z,61.82
2023-05-09T07:21:28.100Z,62.23
2023-05-09T07:22:28.756Z,61.31
2023-05-09T07:23:27.296Z,61.18
2023-05-09T07:24:27.252Z,61.69
2023-05-09T07:25:27.268Z,60.77
2023-05-09T07:26:27.184Z,61.69
2023-05-09T07:27:27.151Z,61.46
2023-05-09T07:28:27.135Z,62.17
2023-05-09T07:29:27.160Z,62.07
2023-05-09T07:30:27.246Z,62.27
2023-05-09T07:31:27.043Z,62.68
2023-05-09T07:32:27.007Z,61.56
2023-05-09T07:33:26.962Z,62.04
2023-05-09T07:34:26.929Z,62.65
2023-05-09T07:35:26.963Z,62.55
2023-05-09T07:36:26.868Z,61.13
2023-05-09T07:37:26.831Z,61.53
2023-05-09T07:38:26.798Z,61.02
2023-05-09T07:39:26.780Z,61.33
2023-05-09T07:40:26.745Z,62.01
2023-05-09T07:41:26.745Z,62.21
2023-05-09T07:42:26.704Z,60.99
2023-05-09T07:43:26.634Z,61.71
2023-05-09T07:44:26.600Z,60.89
2023-05-09T07:45:26.716Z,62.18
2023-05-09T07:46:26.631Z,61.88
2023-05-09T07:47:26.588Z,61.98
2023-05-09T07:48:26.471Z,61.57
2023-05-09T07:49:26.434Z,61.68
2023-05-09T07:50:26.411Z,61.07
2023-05-09T07:51:26.377Z,60.46
2023-05-09T07:52:26.352Z,60.76
2023-05-09T07:53:26.392Z,61.37
2023-05-09T07:54:26.278Z,60.66
2023-05-09T07:55:26.259Z,60.36
2023-05-09T07:56:26.226Z,60.36
2023-05-09T07:57:26.190Z,60.43
2023-05-09T07:58:26.155Z,60.46
2023-05-09T07:59:26.196Z,59.84
2023-05-09T08:00:26.101Z,58.94
2023-05-09T08:01:26.197Z,59.14
2023-05-09T08:02:26.129Z,59.54
2023-05-09T08:03:26.114Z,59.95
2023-05-09T08:04:26.027Z,60.36
2023-05-09T08:05:26.021Z,59.14
2023-05-09T08:06:25.905Z,60.02
2023-05-09T08:07:25.896Z,59.64
2023-05-09T08:08:25.839Z,59.31
2023-05-09T08:09:25.814Z,59.31
2023-05-09T08:10:25.878Z,59.92
2023-05-09T08:11:25.849Z,59.99
2023-05-09T08:12:25.705Z,58.98
2023-05-09T08:13:25.800Z,59.18
2023-05-09T08:14:25.662Z,58.58
2023-05-09T08:15:25.628Z,58.27
2023-05-09T08:16:25.665Z,59.28
2023-05-09T08:17:25.691Z,58.17
2023-05-09T08:18:25.560Z,59.18
2023-05-09T08:19:25.493Z,59.28
2023-05-09T08:20:25.461Z,58.78
2023-05-09T08:21:25.436Z,58.67
2023-05-09T08:22:25.462Z,57.97
2023-05-09T08:23:25.378Z,57.93
2023-05-09T08:24:25.360Z,58.14
2023-05-09T08:25:25.312Z,59.05
2023-05-09T08:26:25.275Z,58.45
2023-05-09T08:27:25.248Z,59.26
2023-05-09T08:28:25.279Z,59.33
2023-05-09T08:29:25.195Z,58.11
2023-05-09T08:30:25.158Z,57.81
2023-05-09T08:31:25.202Z,57.33
2023-05-09T08:32:25.090Z,59.12
2023-05-09T08:33:25.132Z,59.43
2023-05-09T08:34:25.094Z,59.03
2023-05-09T08:35:25.007Z,59.23
2023-05-09T08:36:25.013Z,58.52
2023-05-09T08:37:24.929Z,58.62
2023-05-09T08:38:24.904Z,59.23
2023-05-09T08:39:24.875Z,57.81
2023-05-09T08:40:24.888Z,56.70
2023-05-09T08:41:24.814Z,57.60
2023-05-09T08:42:26.395Z,57.91
2023-05-09T08:43:24.748Z,57.78
2023-05-09T08:44:24.715Z,57.07
2023-05-09T08:45:24.735Z,58.09
2023-05-09T08:46:24.659Z,58.29
2023-05-09T08:47:24.667Z,57.78
2023-05-09T08:48:24.592Z,56.67
2023-05-09T08:49:24.645Z,57.28
2023-05-09T08:50:24.584Z,56.13
2023-05-09T08:51:24.498Z,56.84
2023-05-09T08:52:24.461Z,56.95
2023-05-09T08:53:24.425Z,57.68
2023-05-09T08:54:24.396Z,56.13
2023-05-09T08:55:24.379Z,57.07
2023-05-09T08:56:24.416Z,57.35
2023-05-09T08:57:24.317Z,56.95
2023-05-09T08:58:24.274Z,57.75
2023-05-09T08:59:24.250Z,56.95
2023-05-09T09:00:24.431Z,56.44
2023-05-09T09:01:24.210Z,57.02
2023-05-09T09:02:24.198Z,56.95
2023-05-09T09:03:24.122Z,57.02
2023-05-09T09:04:24.131Z,57.02
2023-05-09T09:05:39.873Z,57.83
2023-05-09T09:06:24.020Z,57.42
2023-05-09T09:07:24.055Z,56.82
2023-05-09T09:08:23.989Z,56.10
2023-05-09T09:09:23.930Z,55.47
2023-05-09T09:10:23.899Z,53.85
2023-05-09T09:11:23.880Z,54.59
2023-05-09T09:12:23.898Z,52.13
2023-05-09T09:13:23.854Z,52.13
2023-05-09T09:14:23.787Z,52.03
2023-05-09T09:15:23.750Z,51.53
2023-05-09T09:16:23.801Z,51.45
2023-05-09T09:17:23.751Z,50.92
2023-05-09T09:18:23.674Z,52.33
2023-05-09T09:19:23.631Z,52.13
2023-05-09T09:20:23.594Z,52.13
2023-05-09T09:21:23.643Z,52.33
2023-05-09T09:22:23.601Z,52.03
2023-05-09T09:23:23.537Z,51.83
2023-05-09T09:24:23.477Z,51.93
2023-05-09T09:25:23.432Z,52.41
2023-05-09T09:26:24.263Z,52.92
2023-05-09T09:27:23.383Z,53.02
2023-05-09T09:28:23.406Z,52.11
2023-05-09T09:29:23.315Z,50.69
2023-05-09T09:30:23.280Z,51.07
2023-05-09T09:31:23.315Z,50.97
2023-05-09T09:32:23.223Z,51.28
2023-05-09T09:33:23.280Z,50.77
2023-05-09T09:34:23.196Z,51.48
2023-05-09T09:35:23.132Z,51.88
2023-05-09T09:36:23.102Z,52.28
2023-05-09T09:37:23.149Z,52.48
2023-05-09T09:38:23.105Z,52.39
2023-05-09T09:39:23.154Z,53.30
2023-05-09T09:40:22.979Z,53.47
2023-05-09T09:41:22.950Z,53.19
2023-05-09T09:42:22.918Z,53.17
2023-05-09T09:43:22.903Z,53.98
2023-05-09T09:44:22.912Z,53.67
2023-05-09T09:45:22.833Z,53.67
2023-05-09T09:46:22.936Z,51.65
2023-05-09T09:47:22.767Z,51.86
2023-05-09T09:48:22.742Z,52.46
2023-05-09T09:49:22.759Z,52.14
2023-05-09T09:50:22.681Z,52.14
2023-05-09T09:51:22.651Z,51.23
2023-05-09T09:52:22.631Z,51.83
2023-05-09T09:53:22.681Z,51.73
2023-05-09T09:54:22.659Z,50.62
2023-05-09T09:55:22.534Z,51.43
2023-05-09T09:56:22.502Z,51.12
2023-05-09T09:57:22.460Z,49.89
2023-05-09T09:58:22.429Z,48.78
2023-05-09T09:59:22.422Z,48.98
2023-05-09T10:00:22.422Z,49.89
2023-05-09T10:01:22.381Z,50.29
2023-05-09T10:02:22.303Z,51.30
2023-05-09T10:03:22.403Z,50.29
2023-05-09T10:04:22.244Z,49.69
2023-05-09T10:05:22.207Z,50.49
2023-05-09T10:06:22.247Z,49.79
2023-05-09T10:07:22.160Z,48.65
2023-05-09T10:08:22.124Z,49.87
2023-05-09T10:09:22.259Z,48.55
2023-05-09T10:10:22.076Z,48.25
2023-05-09T10:11:22.054Z,47.44
2023-05-09T10:12:22.329Z,47.36
2023-05-09T10:13:21.993Z,47.16
2023-05-09T10:14:21.941Z,47.54
2023-05-09T10:15:21.918Z,49.16
2023-05-09T10:16:35.769Z,48.75
2023-05-09T10:17:22.015Z,48.33
2023-05-09T10:18:22.020Z,49.16
2023-05-09T10:19:21.793Z,49.26
2023-05-09T10:20:21.765Z,49.46
2023-05-09T10:21:21.742Z,49.87
2023-05-09T10:22:21.712Z,50.65
2023-05-09T10:23:21.692Z,50.24
2023-05-09T10:24:21.698Z,50.35
2023-05-09T10:25:21.687Z,50.15
2023-05-09T10:26:21.595Z,50.35
2023-05-09T10:27:21.612Z,49.44
2023-05-09T10:28:21.536Z,50.45
2023-05-09T10:29:21.555Z,49.84
2023-05-09T10:30:21.496Z,49.52
2023-05-09T10:31:21.482Z,49.31
2023-05-09T10:32:21.455Z,50.42
2023-05-09T10:33:21.377Z,47.60
2023-05-09T10:34:21.347Z,47.50
2023-05-09T10:35:21.404Z,48.81
2023-05-09T10:36:21.297Z,48.61
2023-05-09T10:37:21.262Z,49.11
2023-05-09T10:38:21.225Z,49.62
2023-05-09T10:39:21.189Z,50.42
2023-05-09T10:40:21.231Z,49.21
2023-05-09T10:41:21.312Z,49.11
2023-05-09T10:42:21.123Z,49.01
2023-05-09T10:43:21.085Z,47.30
2023-05-09T10:44:21.045Z,47.30
2023-05-09T10:45:21.067Z,47.38
2023-05-09T10:46:21.087Z,48.38
2023-05-09T10:47:21.011Z,46.17
2023-05-09T10:48:20.942Z,46.67
2023-05-09T10:49:20.891Z,47.17
2023-05-09T10:50:20.891Z,48.38
2023-05-09T10:51:20.840Z,47.27
2023-05-09T10:52:20.896Z,47.47
2023-05-09T10:53:20.790Z,46.95
2023-05-09T10:54:20.755Z,45.36
2023-05-09T10:55:20.718Z,46.97
2023-05-09T10:56:20.684Z,47.07
2023-05-09T10:57:20.787Z,46.04
2023-05-09T10:58:20.622Z,46.17
2023-05-09T10:59:20.616Z,46.67
2023-05-09T11:00:20.566Z,47.05
2023-05-09T11:01:20.560Z,47.15
2023-05-09T11:02:20.513Z,47.05
2023-05-09T11:03:20.637Z,47.05
2023-05-09T11:04:20.472Z,47.05
2023-05-09T11:05:20.419Z,46.77
2023-05-09T11:06:20.400Z,48.38
2023-05-09T11:07:20.365Z,48.18
2023-05-09T11:08:20.345Z,48.66
2023-05-09T11:09:20.371Z,48.46
2023-05-09T11:10:20.273Z,49.04
2023-05-09T11:11:20.272Z,47.74
2023-05-09T11:12:20.226Z,47.74
2023-05-09T11:13:20.341Z,47.53
2023-05-09T11:14:20.160Z,44.71
2023-05-09T11:15:20.193Z,44.81
2023-05-09T11:16:20.256Z,45.72
2023-05-09T11:17:20.072Z,46.42
2023-05-09T11:18:20.128Z,46.22
2023-05-09T11:19:20.022Z,46.33
2023-05-09T11:20:19.985Z,46.73
2023-05-09T11:21:19.999Z,46.73
2023-05-09T11:22:19.936Z,45.42
2023-05-09T11:23:20.000Z,46.73
2023-05-09T11:24:19.869Z,47.00
2023-05-09T11:25:19.845Z,45.29
2023-05-09T11:26:19.813Z,45.39
2023-05-09T11:27:19.793Z,46.20
2023-05-09T11:28:19.758Z,44.69
2023-05-09T11:29:19.867Z,45.37
2023-05-09T11:30:19.702Z,46.68
2023-05-09T11:31:19.684Z,47.19
2023-05-09T11:32:19.638Z,44.67
2023-05-09T11:33:19.630Z,44.67
2023-05-09T11:34:19.570Z,45.00
2023-05-09T11:35:19.800Z,45.29
2023-05-09T11:36:19.550Z,45.70
2023-05-09T11:37:20.308Z,47.61
2023-05-09T11:38:19.459Z,46.50
2023-05-09T11:39:20.187Z,47.31
2023-05-09T11:40:19.417Z,46.70
2023-05-09T11:41:19.439Z,47.79
2023-05-09T11:42:19.347Z,47.08
2023-05-09T11:43:19.340Z,46.38
2023-05-09T11:44:19.303Z,46.28
2023-05-09T11:45:19.349Z,45.78
2023-05-09T11:46:19.248Z,46.86
2023-05-09T11:47:19.240Z,47.46
2023-05-09T11:48:19.172Z,46.06
2023-05-09T11:49:19.134Z,46.14
2023-05-09T11:50:19.199Z,46.76
2023-05-09T11:51:19.078Z,46.46
2023-05-09T11:52:19.057Z,47.06
2023-05-09T11:53:19.044Z,46.54
2023-05-09T11:54:19.008Z,46.84
2023-05-09T11:55:19.423Z,47.42
2023-05-09T11:56:18.986Z,46.92
2023-05-09T11:57:18.913Z,46.41
2023-05-09T11:58:18.880Z,46.54
2023-05-09T11:59:18.864Z,46.92
2023-05-09T12:00:18.834Z,46.72
2023-05-09T12:01:18.865Z,46.94
2023-05-09T12:02:18.888Z,46.44
2023-05-09T12:03:19.077Z,45.33
2023-05-09T12:04:18.770Z,45.43
2023-05-09T12:05:18.735Z,46.64
2023-05-09T12:06:18.653Z,46.03
2023-05-09T12:07:18.766Z,45.33
2023-05-09T12:08:18.600Z,45.51
2023-05-09T12:09:18.591Z,45.91
2023-05-09T12:10:18.547Z,46.61
2023-05-09T12:11:18.507Z,44.91
2023-05-09T12:12:18.478Z,44.51
2023-05-09T12:13:18.562Z,45.81
2023-05-09T12:14:18.439Z,44.20
2023-05-09T12:15:19.247Z,43.90
2023-05-09T12:16:18.451Z,43.30
2023-05-09T12:17:18.335Z,44.00
2023-05-09T12:18:18.330Z,43.90
2023-05-09T12:19:18.348Z,44.31
2023-05-09T12:20:18.278Z,44.31
2023-05-09T12:21:18.226Z,44.20
2023-05-09T12:22:18.192Z,44.31
2023-05-09T12:23:18.171Z,44.60
2023-05-09T12:24:18.134Z,43.70
2023-05-09T12:25:18.230Z,43.20
2023-05-09T12:26:18.081Z,43.48
2023-05-09T12:27:18.088Z,43.68
2023-05-09T12:28:18.025Z,43.98
2023-05-09T12:29:18.026Z,44.68
2023-05-09T12:30:17.969Z,44.00
2023-05-09T12:31:18.073Z,44.10
2023-05-09T12:32:17.915Z,44.51
2023-05-09T12:33:17.967Z,46.31
2023-05-09T12:34:17.859Z,45.91
2023-05-09T12:35:17.931Z,45.81
2023-05-09T12:36:17.801Z,42.97
2023-05-09T12:37:17.832Z,41.59
2023-05-09T12:38:17.744Z,43.40
2023-05-09T12:39:17.708Z,44.18
2023-05-09T12:40:17.760Z,44.79
2023-05-09T12:41:34.866Z,45.18
2023-05-09T12:42:17.621Z,44.36
2023-05-09T12:43:17.688Z,44.56
2023-05-09T12:44:17.576Z,44.79
2023-05-09T12:45:17.782Z,44.16
2023-05-09T12:46:17.570Z,44.18
2023-05-09T12:47:17.540Z,43.48
2023-05-09T12:48:17.457Z,43.68
2023-05-09T12:49:17.553Z,44.08
2023-05-09T12:50:17.401Z,43.88
2023-05-09T12:51:17.373Z,42.78
2023-05-09T12:52:17.385Z,44.18